Time;durP1;ratioP1;P1;durP2;ratioP2;P2;SDS_P1;SDS_P2;PMS_P1;PMS_P2;Temp;Humidity;BMP_temperature;BMP_pressure;BME280_temperature;BME280_humidity;BME280_pressure;Samples;Min_cycle;Max_cycle;Signal;HPM_P1;HPM_P2
2023/09/26 00:02:03;;;;;;;7.63;6.85;;;12.80;65.30;;;;;;7390958;19;20110;-72
2023/09/26 00:04:37;;;;;;;10.23;7.40;;;12.80;64.70;;;;;;7390495;19;20018;-72
2023/09/26 00:07:07;;;;;;;9.23;7.00;;;12.90;63.90;;;;;;7392838;19;20394;-72
2023/09/26 00:09:37;;;;;;;8.77;6.57;;;12.80;60.90;;;;;;7392589;19;20010;-71
2023/09/26 00:12:08;;;;;;;8.88;7.25;;;12.80;59.80;;;;;;7391884;19;20526;-73
2023/09/26 00:14:39;;;;;;;13.00;8.40;;;12.70;64.30;;;;;;7392147;19;20088;-70
2023/09/26 00:17:09;;;;;;;8.80;7.90;;;12.70;68.40;;;;;;7390460;19;20010;-71
2023/09/26 00:19:42;;;;;;;8.45;7.50;;;12.70;69.30;;;;;;7391021;19;20343;-72
2023/09/26 00:22:12;;;;;;;8.13;7.30;;;12.70;72.20;;;;;;7391549;19;20010;-71
2023/09/26 00:24:42;;;;;;;8.45;7.40;;;12.60;72.10;;;;;;7392986;19;20082;-71
2023/09/26 00:27:12;;;;;;;8.90;6.88;;;12.60;72.10;;;;;;7391792;19;20078;-72
2023/09/26 00:29:43;;;;;;;10.50;8.43;;;12.50;72.80;;;;;;7391481;19;20018;-71
2023/09/26 00:32:13;;;;;;;13.32;8.93;;;12.50;78.10;;;;;;7391920;19;20081;-72
2023/09/26 00:34:46;;;;;;;10.93;8.38;;;12.40;82.50;;;;;;7392149;19;20555;-72
2023/09/26 00:37:16;;;;;;;10.18;7.95;;;12.40;85.50;;;;;;7389959;19;20474;-71
2023/09/26 00:39:46;;;;;;;10.70;7.93;;;12.30;89.40;;;;;;7391839;19;20022;-71
2023/09/26 00:42:14;;;;;;;8.48;7.57;;;12.30;90.30;;;;;;7391871;19;20074;-72
2023/09/26 00:44:44;;;;;;;9.73;7.30;;;12.20;90.60;;;;;;7392362;19;20094;-71
2023/09/26 00:47:14;;;;;;;8.85;7.22;;;12.10;91.10;;;;;;7392805;19;20069;-71
2023/09/26 00:49:48;;;;;;;9.02;6.88;;;12.10;93.60;;;;;;7393232;19;20010;-71
2023/09/26 00:52:18;;;;;;;8.07;7.00;;;12.00;92.90;;;;;;7390564;19;20007;-71
2023/09/26 00:54:48;;;;;;;7.97;6.95;;;12.00;93.70;;;;;;7391654;19;20010;-72
2023/09/26 00:57:18;;;;;;;8.57;7.18;;;12.00;94.50;;;;;;7390105;19;20396;-71
2023/09/26 00:59:48;;;;;;;8.52;7.40;;;12.00;95.40;;;;;;7391466;19;20706;-71
2023/09/26 01:02:18;;;;;;;11.73;8.57;;;12.00;94.90;;;;;;7391425;19;20093;-71
2023/09/26 01:04:51;;;;;;;9.55;7.68;;;11.90;96.80;;;;;;7391046;19;20010;-71
2023/09/26 01:07:22;;;;;;;9.85;7.97;;;11.90;97.90;;;;;;7391287;19;20048;-72
2023/09/26 01:09:52;;;;;;;8.60;7.40;;;11.80;97.90;;;;;;7391890;19;20006;-72
2023/09/26 01:12:22;;;;;;;10.25;7.55;;;11.80;99.90;;;;;;7391188;19;20011;-72
2023/09/26 01:14:52;;;;;;;8.13;7.32;;;11.80;99.90;;;;;;7390974;19;20074;-72
2023/09/26 01:17:22;;;;;;;9.18;7.68;;;11.80;99.90;;;;;;7395323;19;20060;-72
2023/09/26 01:19:54;;;;;;;9.07;7.95;;;11.70;99.90;;;;;;7410392;19;20007;-72
2023/09/26 01:22:29;;;;;;;9.90;7.90;;;11.70;99.90;;;;;;7394735;19;20011;-72
2023/09/26 01:25:02;;;;;;;11.30;7.78;;;11.70;99.90;;;;;;7391396;19;20010;-72
2023/09/26 01:27:32;;;;;;;11.60;8.02;;;11.60;99.90;;;;;;7392398;19;20002;-71
2023/09/26 01:30:03;;;;;;;8.45;7.53;;;11.60;99.90;;;;;;7390740;19;20010;-72
2023/09/26 01:32:33;;;;;;;8.52;7.25;;;11.60;99.90;;;;;;7390524;19;20015;-73
2023/09/26 01:35:04;;;;;;;9.35;7.72;;;11.60;99.90;;;;;;7389461;19;20014;-71
2023/09/26 01:37:34;;;;;;;9.82;7.53;;;11.60;99.90;;;;;;7392260;19;20018;-72
2023/09/26 01:40:16;;;;;;;8.63;7.72;;;11.50;99.90;;;;;;7388265;19;20030;-71
2023/09/26 01:42:46;;;;;;;12.48;7.97;;;11.50;99.90;;;;;;7391690;19;20018;-71
2023/09/26 01:45:17;;;;;;;9.15;7.72;;;11.50;99.90;;;;;;7389277;19;20013;-72
2023/09/26 01:47:49;;;;;;;8.90;8.00;;;11.50;99.90;;;;;;7391287;19;20011;-71
2023/09/26 01:50:21;;;;;;;9.43;7.82;;;11.50;99.90;;;;;;7389070;19;20010;-71
2023/09/26 01:52:51;;;;;;;9.85;8.77;;;11.50;99.90;;;;;;7390875;19;20007;-71
2023/09/26 01:55:25;;;;;;;14.43;9.68;;;11.50;99.90;;;;;;7387413;19;20024;-72
2023/09/26 01:57:55;;;;;;;13.05;10.10;;;11.50;99.90;;;;;;7388992;19;20102;-73
2023/09/26 02:00:25;;;;;;;13.93;10.82;;;11.60;99.90;;;;;;7389062;19;20085;-72
2023/09/26 02:02:55;;;;;;;14.75;11.25;;;11.60;99.90;;;;;;7391351;19;20095;-71
2023/09/26 02:05:25;;;;;;;14.05;11.05;;;11.60;99.90;;;;;;7388959;19;20455;-71
2023/09/26 02:07:55;;;;;;;14.25;11.60;;;11.70;99.90;;;;;;7390245;19;20113;-71
2023/09/26 02:10:28;;;;;;;15.75;12.27;;;11.60;99.90;;;;;;7387120;19;20018;-71
2023/09/26 02:12:58;;;;;;;15.95;11.75;;;11.60;99.90;;;;;;7390295;19;20031;-72
2023/09/26 02:15:28;;;;;;;16.38;12.23;;;11.60;99.90;;;;;;7387095;19;20756;-71
2023/09/26 02:18:00;;;;;;;15.18;12.10;;;11.60;99.90;;;;;;7391202;19;20586;-71
2023/09/26 02:20:31;;;;;;;17.27;13.07;;;11.60;99.90;;;;;;7386820;19;20424;-72
2023/09/26 02:23:01;;;;;;;14.85;12.90;;;11.60;99.90;;;;;;7390048;19;20038;-72
2023/09/26 02:25:34;;;;;;;16.98;13.65;;;11.60;99.90;;;;;;7389228;19;20044;-72
2023/09/26 02:28:04;;;;;;;15.40;13.38;;;11.60;99.90;;;;;;7388786;19;20011;-71
2023/09/26 02:30:34;;;;;;;12.95;11.55;;;11.60;99.90;;;;;;7389030;19;20010;-72
2023/09/26 02:33:04;;;;;;;14.43;10.75;;;11.50;99.90;;;;;;7387943;19;20466;-72
2023/09/26 02:35:34;;;;;;;11.23;9.68;;;11.50;99.90;;;;;;7387958;19;20498;-72
2023/09/26 02:38:03;;;;;;;11.35;9.57;;;11.40;99.90;;;;;;7387896;19;20106;-72
2023/09/26 02:40:36;;;;;;;11.32;10.23;;;11.30;99.90;;;;;;7387969;19;20019;-72
2023/09/26 02:43:07;;;;;;;13.27;11.50;;;11.30;99.90;;;;;;7388583;19;20021;-73
2023/09/26 02:45:37;;;;;;;16.02;11.85;;;11.40;99.90;;;;;;7392960;19;20015;-72
2023/09/26 02:48:08;;;;;;;16.63;11.75;;;11.50;99.90;;;;;;7394161;19;20014;-72
2023/09/26 02:50:38;;;;;;;15.40;13.32;;;11.50;99.90;;;;;;7395112;19;20014;-71
2023/09/26 02:53:09;;;;;;;16.00;13.90;;;11.60;99.90;;;;;;7393101;19;20038;-71
2023/09/26 02:55:44;;;;;;;19.40;14.18;;;11.60;99.90;;;;;;7393458;19;20017;-71
2023/09/26 02:58:14;;;;;;;20.60;14.15;;;11.60;99.90;;;;;;7394338;19;20044;-72
2023/09/26 03:00:44;;;;;;;18.20;13.90;;;11.60;99.90;;;;;;7395347;19;20014;-72
2023/09/26 03:03:14;;;;;;;18.95;14.27;;;11.60;99.90;;;;;;7394317;19;20050;-71
2023/09/26 03:05:51;;;;;;;18.52;14.77;;;11.50;99.90;;;;;;7393242;19;20017;-73
2023/09/26 03:08:21;;;;;;;15.27;13.68;;;11.60;99.90;;;;;;7393605;19;20011;-73
2023/09/26 03:10:54;;;;;;;16.60;13.57;;;11.50;99.90;;;;;;7392967;19;20022;-72
2023/09/26 03:13:24;;;;;;;18.73;14.40;;;11.50;99.90;;;;;;7392025;19;20773;-72
2023/09/26 03:15:57;;;;;;;17.02;13.55;;;11.50;99.90;;;;;;7394145;19;20022;-71
2023/09/26 03:18:28;;;;;;;18.52;14.25;;;11.50;99.90;;;;;;7394576;19;20010;-71
2023/09/26 03:20:58;;;;;;;16.33;14.05;;;11.40;99.90;;;;;;7395534;19;20082;-72
2023/09/26 03:23:28;;;;;;;20.38;14.75;;;11.40;99.90;;;;;;7393465;19;20385;-72
2023/09/26 03:26:00;;;;;;;18.83;14.93;;;11.40;99.90;;;;;;7393905;19;20015;-72
2023/09/26 03:28:30;;;;;;;19.63;14.93;;;11.40;99.90;;;;;;7392454;19;20019;-71
2023/09/26 03:31:01;;;;;;;23.10;15.75;;;11.40;99.90;;;;;;7394455;19;20018;-72
2023/09/26 03:33:31;;;;;;;21.35;14.80;;;11.40;99.90;;;;;;7394395;19;20019;-71
2023/09/26 03:36:01;;;;;;;19.73;15.05;;;11.40;99.90;;;;;;7394093;19;20084;-71
2023/09/26 03:38:31;;;;;;;16.92;14.10;;;11.30;99.90;;;;;;7393422;19;20066;-71
2023/09/26 03:41:04;;;;;;;18.90;14.48;;;11.40;99.90;;;;;;7393295;19;20488;-71
2023/09/26 03:43:35;;;;;;;17.52;13.93;;;11.40;99.90;;;;;;7393803;19;20019;-71
2023/09/26 03:46:06;;;;;;;16.52;14.05;;;11.30;99.90;;;;;;7393400;19;20093;-72
2023/09/26 03:48:37;;;;;;;17.95;14.32;;;11.30;99.90;;;;;;7393474;19;20043;-71
2023/09/26 03:51:11;;;;;;;16.23;13.68;;;11.30;99.90;;;;;;7392398;19;20031;-72
2023/09/26 03:53:42;;;;;;;19.33;13.50;;;11.20;99.90;;;;;;7394822;19;20635;-71
2023/09/26 03:56:14;;;;;;;18.27;14.07;;;11.20;99.90;;;;;;7391912;19;20028;-71
2023/09/26 03:58:45;;;;;;;14.25;12.73;;;11.20;99.90;;;;;;7394598;19;20046;-72
2023/09/26 04:01:17;;;;;;;17.90;13.02;;;11.30;99.90;;;;;;7392629;19;20006;-71
2023/09/26 04:03:48;;;;;;;15.10;13.07;;;11.30;99.90;;;;;;7392651;19;20350;-71
2023/09/26 04:06:19;;;;;;;14.27;11.85;;;11.20;99.90;;;;;;7392382;19;20014;-71
2023/09/26 04:08:49;;;;;;;13.75;11.70;;;11.20;99.90;;;;;;7393557;19;20013;-71
2023/09/26 04:11:22;;;;;;;15.45;11.95;;;11.10;99.90;;;;;;7392265;19;20086;-71
2023/09/26 04:13:52;;;;;;;13.52;11.63;;;11.00;99.90;;;;;;7393689;19;20584;-71
2023/09/26 04:16:22;;;;;;;14.27;12.00;;;11.00;99.90;;;;;;7391743;19;20018;-72
2023/09/26 04:18:52;;;;;;;17.13;12.20;;;10.90;99.90;;;;;;7392509;19;20042;-71
2023/09/26 04:21:22;;;;;;;17.05;12.68;;;11.00;99.90;;;;;;7392881;19;20018;-72
2023/09/26 04:23:52;;;;;;;14.75;12.68;;;11.00;99.90;;;;;;7393428;19;20014;-71
2023/09/26 04:26:25;;;;;;;16.60;13.75;;;11.00;99.90;;;;;;7390893;19;20412;-72
2023/09/26 04:28:57;;;;;;;18.33;13.75;;;11.10;99.90;;;;;;7390807;19;20007;-71
2023/09/26 04:31:27;;;;;;;15.60;13.75;;;11.00;99.90;;;;;;7391270;19;20038;-71
2023/09/26 04:33:57;;;;;;;15.00;13.40;;;11.00;99.90;;;;;;7392303;19;20502;-71
2023/09/26 04:36:27;;;;;;;14.48;12.98;;;11.00;99.90;;;;;;7389350;19;20129;-71
2023/09/26 04:38:57;;;;;;;16.08;14.05;;;11.00;99.90;;;;;;7392007;19;20006;-71
2023/09/26 04:41:29;;;;;;;17.08;13.50;;;11.00;99.90;;;;;;7391837;19;20067;-70
2023/09/26 04:43:59;;;;;;;17.75;13.75;;;11.00;99.90;;;;;;7392421;19;20032;-71
2023/09/26 04:46:29;;;;;;;18.50;13.23;;;10.90;99.90;;;;;;7389499;19;20018;-71
2023/09/26 04:48:59;;;;;;;17.00;14.52;;;10.80;99.90;;;;;;7392012;19;20474;-72
2023/09/26 04:51:30;;;;;;;18.10;14.40;;;10.80;99.90;;;;;;7390509;19;20034;-72
2023/09/26 04:54:01;;;;;;;16.88;13.73;;;10.80;99.90;;;;;;7389902;19;20018;-71
2023/09/26 04:56:34;;;;;;;17.35;14.07;;;10.80;99.90;;;;;;7390439;19;20030;-70
2023/09/26 04:59:04;;;;;;;20.15;14.90;;;10.80;99.90;;;;;;7390675;19;20040;-70
2023/09/26 05:01:36;;;;;;;18.55;14.27;;;10.80;99.90;;;;;;7391409;19;20485;-71
2023/09/26 05:04:07;;;;;;;17.88;14.02;;;10.80;99.90;;;;;;7390635;19;20031;-71
2023/09/26 05:06:36;;;;;;;16.45;14.02;;;10.80;99.90;;;;;;7388152;19;20051;-72
2023/09/26 05:09:08;;;;;;;17.00;14.23;;;10.90;99.90;;;;;;7390231;19;20015;-71
2023/09/26 05:11:41;;;;;;;17.48;14.57;;;10.80;99.90;;;;;;7390325;19;20023;-71
2023/09/26 05:14:11;;;;;;;16.52;13.90;;;10.80;99.90;;;;;;7389927;19;20062;-71
2023/09/26 05:16:41;;;;;;;17.98;14.02;;;10.90;99.90;;;;;;7391040;19;20046;-72
2023/09/26 05:19:11;;;;;;;17.33;14.80;;;10.90;99.90;;;;;;7390811;19;20011;-71
2023/09/26 05:21:41;;;;;;;17.40;13.75;;;10.90;99.90;;;;;;7391548;19;20018;-72
2023/09/26 05:24:11;;;;;;;14.98;13.05;;;10.90;99.90;;;;;;7390618;19;20431;-71
2023/09/26 05:26:44;;;;;;;18.73;12.57;;;10.90;99.90;;;;;;7390451;19;20027;-72
2023/09/26 05:29:14;;;;;;;17.58;12.63;;;10.90;99.90;;;;;;7383002;19;20027;-71
2023/09/26 05:31:44;;;;;;;13.93;11.75;;;11.00;99.90;;;;;;7385141;19;20742;-72
2023/09/26 05:34:14;;;;;;;16.60;12.35;;;11.00;99.90;;;;;;7387963;19;20024;-72
2023/09/26 05:36:44;;;;;;;16.20;13.40;;;11.00;99.90;;;;;;7388957;19;20014;-72
2023/09/26 05:39:14;;;;;;;15.32;11.23;;;11.10;99.90;;;;;;7387917;19;20442;-71
2023/09/26 05:41:46;;;;;;;13.00;10.90;;;11.20;99.10;;;;;;7387805;19;20097;-70
2023/09/26 05:44:17;;;;;;;13.75;11.00;;;11.30;95.10;;;;;;7387988;19;20010;-71
2023/09/26 05:46:47;;;;;;;12.73;9.68;;;11.30;90.70;;;;;;7389365;19;20018;-71
2023/09/26 05:49:19;;;;;;;12.65;9.82;;;11.40;83.90;;;;;;7384024;19;20007;-73
2023/09/26 05:51:49;;;;;;;12.45;10.55;;;11.60;75.80;;;;;;7373678;19;20411;-71
2023/09/26 05:54:19;;;;;;;14.88;11.60;;;11.60;64.70;;;;;;7373903;19;20094;-71
2023/09/26 05:57:04;;;;;;;14.98;11.70;;;11.60;59.50;;;;;;7374848;19;20806;-71
2023/09/26 05:59:34;;;;;;;12.73;10.90;;;11.70;53.90;;;;;;7373694;19;20078;-71
2023/09/26 06:02:04;;;;;;;12.07;9.82;;;11.80;49.20;;;;;;7371959;19;20007;-72
2023/09/26 06:04:34;;;;;;;18.30;8.80;;;11.90;44.60;;;;;;7372324;19;20082;-71
2023/09/26 06:07:04;;;;;;;12.20;8.88;;;11.80;38.70;;;;;;7374867;19;20654;-71
2023/09/26 06:09:35;;;;;;;9.75;8.25;;;11.90;37.80;;;;;;7374404;19;20010;-71
2023/09/26 06:12:08;;;;;;;11.35;8.85;;;11.90;30.90;;;;;;7374047;19;20011;-71
2023/09/26 06:14:38;;;;;;;11.60;8.50;;;12.00;33.40;;;;;;7374632;19;20606;-70
2023/09/26 06:17:11;;;;;;;12.07;7.95;;;12.10;25.90;;;;;;7375357;19;20291;-72
2023/09/26 06:19:45;;;;;;;10.15;8.40;;;12.10;21.80;;;;;;7375849;19;20489;-73
2023/09/26 06:22:15;;;;;;;10.45;8.13;;;12.10;19.30;;;;;;7377860;19;20077;-71
2023/09/26 06:24:45;;;;;;;10.40;8.20;;;12.10;20.70;;;;;;7396078;19;20024;-72
2023/09/26 06:27:18;;;;;;;10.23;8.27;;;12.30;21.50;;;;;;7395449;19;20088;-71
2023/09/26 06:29:48;;;;;;;10.60;8.43;;;12.30;17.50;;;;;;7393373;19;20018;-72
2023/09/26 06:32:19;;;;;;;9.63;7.70;;;12.40;14.60;;;;;;7394890;19;20020;-72
2023/09/26 06:34:49;;;;;;;14.48;8.23;;;12.30;14.90;;;;;;7393082;19;20031;-71
2023/09/26 06:37:22;;;;;;;8.80;7.30;;;12.40;13.60;;;;;;7393357;19;20022;-71
2023/09/26 06:39:52;;;;;;;8.73;7.63;;;12.50;12.90;;;;;;7393994;19;20117;-71
2023/09/26 06:42:24;;;;;;;12.00;8.27;;;12.50;13.70;;;;;;7393488;19;20038;-72
2023/09/26 06:44:55;;;;;;;15.00;7.72;;;12.50;9.10;;;;;;7393524;19;20322;-71
2023/09/26 06:47:25;;;;;;;9.05;8.10;;;12.60;7.00;;;;;;7395050;19;20479;-71
2023/09/26 06:49:56;;;;;;;9.50;7.35;;;12.70;7.60;;;;;;7392653;19;20018;-72
2023/09/26 06:52:26;;;;;;;9.93;7.82;;;12.70;4.60;;;;;;7394516;19;20018;-71
2023/09/26 06:54:56;;;;;;;8.23;7.35;;;12.70;3.40;;;;;;7392450;19;20403;-71
2023/09/26 06:57:29;;;;;;;10.75;8.50;;;12.80;2.80;;;;;;7394406;19;20369;-71
2023/09/26 07:00:00;;;;;;;9.45;7.82;;;12.90;1.10;;;;;;7394586;19;20014;-71
2023/09/26 07:02:33;;;;;;;11.55;7.85;;;13.00;1.00;;;;;;7393971;19;20006;-71
2023/09/26 07:05:03;;;;;;;11.30;7.18;;;13.00;1.00;;;;;;7393444;19;20095;-70
2023/09/26 07:07:34;;;;;;;8.07;7.28;;;13.00;1.00;;;;;;7392724;19;20020;-71
2023/09/26 07:10:04;;;;;;;8.32;7.45;;;13.10;1.00;;;;;;7394558;19;20054;-71
2023/09/26 07:12:37;;;;;;;10.00;7.30;;;13.20;1.00;;;;;;7394554;19;20096;-71
2023/09/26 07:15:08;;;;;;;10.02;7.35;;;13.50;1.00;;;;;;7392041;19;20011;-71
2023/09/26 07:17:38;;;;;;;9.38;6.60;;;13.50;1.00;;;;;;7395434;19;20407;-72
2023/09/26 07:20:13;;;;;;;9.25;7.10;;;13.70;1.00;;;;;;7393681;19;20018;-70
2023/09/26 07:22:44;;;;;;;9.45;7.38;;;13.70;1.00;;;;;;7394169;19;20010;-72
2023/09/26 07:25:15;;;;;;;10.07;7.25;;;13.90;1.00;;;;;;7390945;19;20024;-71
2023/09/26 07:27:47;;;;;;;8.23;7.30;;;14.00;1.00;;;;;;7392995;19;20022;-71
2023/09/26 07:30:17;;;;;;;12.95;7.30;;;14.00;1.00;;;;;;7390056;19;20038;-71
2023/09/26 07:32:47;;;;;;;10.27;7.25;;;14.10;1.00;;;;;;7393989;19;20011;-71
2023/09/26 07:35:18;;;;;;;9.80;7.05;;;14.20;1.00;;;;;;7392109;19;20014;-72
2023/09/26 07:37:48;;;;;;;10.27;7.35;;;14.30;1.00;;;;;;7393963;19;20022;-72
2023/09/26 07:40:18;;;;;;;9.60;8.10;;;14.40;1.00;;;;;;7392608;19;20014;-71
2023/09/26 07:42:51;;;;;;;14.30;10.50;;;14.50;1.00;;;;;;7394083;19;20103;-71
2023/09/26 07:45:21;;;;;;;9.70;7.38;;;14.60;1.00;;;;;;7390581;19;20027;-72
2023/09/26 07:47:51;;;;;;;11.18;7.15;;;14.70;1.00;;;;;;7392601;19;20078;-71
2023/09/26 07:50:21;;;;;;;8.43;6.70;;;14.90;1.00;;;;;;7390400;19;20078;-71
2023/09/26 07:52:52;;;;;;;10.45;6.38;;;14.90;1.00;;;;;;7390990;19;20018;-72
2023/09/26 07:55:22;;;;;;;8.23;7.13;;;15.10;1.00;;;;;;7389606;19;20035;-71
2023/09/26 07:57:55;;;;;;;9.10;6.97;;;15.10;1.00;;;;;;7391560;19;20044;-70
2023/09/26 08:00:27;;;;;;;6.85;6.15;;;15.20;1.00;;;;;;7392255;19;20022;-70
2023/09/26 08:02:57;;;;;;;12.45;7.38;;;15.40;1.00;;;;;;7390959;19;20015;-72
2023/09/26 08:05:27;;;;;;;10.25;6.65;;;15.30;1.00;;;;;;7390827;19;20010;-71
2023/09/26 08:07:58;;;;;;;9.63;6.82;;;15.50;1.00;;;;;;7392531;19;20019;-71
2023/09/26 08:10:29;;;;;;;9.70;6.85;;;15.60;1.00;;;;;;7390539;19;20014;-71
2023/09/26 08:13:01;;;;;;;9.13;6.18;;;15.60;1.00;;;;;;7392897;19;20014;-71
2023/09/26 08:15:32;;;;;;;9.23;6.40;;;15.80;1.00;;;;;;7390889;19;20470;-71
2023/09/26 08:18:03;;;;;;;8.50;6.15;;;16.00;1.00;;;;;;7394897;19;20033;-71
2023/09/26 08:20:33;;;;;;;8.07;6.90;;;16.00;1.00;;;;;;7394724;19;20043;-70
2023/09/26 08:23:05;;;;;;;8.55;7.03;;;16.10;1.00;;;;;;7392968;19;20086;-72
2023/09/26 08:25:36;;;;;;;10.43;7.30;;;16.20;1.00;;;;;;7390970;19;20018;-71
2023/09/26 08:28:09;;;;;;;7.97;6.53;;;16.20;1.00;;;;;;7392152;19;20101;-72
2023/09/26 08:30:40;;;;;;;7.80;6.38;;;16.40;1.00;;;;;;7391934;19;20015;-71
2023/09/26 08:33:09;;;;;;;9.05;6.30;;;16.50;1.00;;;;;;7392880;19;20019;-71
2023/09/26 08:35:40;;;;;;;9.43;6.90;;;16.70;1.00;;;;;;7391907;19;20018;-71
2023/09/26 08:38:10;;;;;;;9.95;6.30;;;16.80;1.00;;;;;;7392574;19;20021;-71
2023/09/26 08:40:41;;;;;;;7.63;6.82;;;16.80;1.00;;;;;;7390350;19;20042;-71
2023/09/26 08:43:15;;;;;;;9.57;6.10;;;17.00;1.00;;;;;;7391614;19;20023;-72
2023/09/26 08:45:45;;;;;;;9.43;6.35;;;17.20;1.00;;;;;;7387909;19;20021;-72
2023/09/26 08:48:16;;;;;;;13.85;9.95;;;17.40;1.00;;;;;;7391543;19;20034;-72
2023/09/26 08:50:46;;;;;;;10.43;7.60;;;17.60;1.00;;;;;;7389560;19;20015;-72
2023/09/26 08:53:16;;;;;;;8.70;7.05;;;17.60;1.00;;;;;;7390707;19;20011;-72
2023/09/26 08:55:49;;;;;;;9.68;7.43;;;17.70;1.00;;;;;;7388862;19;20022;-71
2023/09/26 08:58:23;;;;;;;7.93;7.07;;;17.80;1.00;;;;;;7390833;19;20530;-72
2023/09/26 09:00:53;;;;;;;;;;;17.90;1.00;;;;;;7390777;19;20352;-72
2023/09/26 09:03:23;;;;;;;8.13;6.38;;;18.10;1.00;;;;;;7389551;19;19963;-72
2023/09/26 09:05:53;;;;;;;9.32;7.68;;;18.20;1.00;;;;;;7389862;19;20014;-72
2023/09/26 09:08:25;;;;;;;9.70;7.45;;;18.00;1.00;;;;;;7389769;19;20006;-72
2023/09/26 09:10:56;;;;;;;7.80;6.57;;;18.10;1.00;;;;;;7389984;19;20006;-71
2023/09/26 09:13:34;;;;;;;10.25;7.35;;;18.10;1.00;;;;;;7390232;19;20007;-72
2023/09/26 09:16:11;;;;;;;8.50;7.03;;;18.20;1.00;;;;;;7389542;19;20145;-71
2023/09/26 09:18:44;;;;;;;9.90;7.18;;;18.40;1.00;;;;;;7390333;19;20015;-72
2023/09/26 09:21:30;;;;;;;8.43;7.47;;;18.60;1.00;;;;;;7388425;19;20014;-72
2023/09/26 09:24:01;;;;;;;9.30;6.50;;;18.40;1.00;;;;;;7389963;19;20316;-72
2023/09/26 09:26:34;;;;;;;10.02;6.90;;;18.50;1.00;;;;;;7388388;19;20078;-71
2023/09/26 09:29:23;;;;;;;7.72;6.43;;;18.60;1.00;;;;;;7389801;19;20096;-71
2023/09/26 09:31:54;;;;;;;8.80;7.45;;;18.60;1.00;;;;;;7390087;19;20042;-72
2023/09/26 09:34:25;;;;;;;9.80;6.90;;;18.60;1.00;;;;;;7389124;19;20384;-72
2023/09/26 09:36:57;;;;;;;11.18;7.45;;;18.70;1.00;;;;;;7388820;19;20074;-72
2023/09/26 09:39:27;;;;;;;8.10;6.93;;;19.00;1.00;;;;;;7387070;19;20125;-72
2023/09/26 09:42:01;;;;;;;14.25;7.93;;;19.10;1.00;;;;;;7390157;19;20018;-72
2023/09/26 09:44:34;;;;;;;14.27;8.37;;;19.10;1.00;;;;;;7387941;19;20023;-74
2023/09/26 09:47:05;;;;;;;9.90;7.53;;;19.10;1.00;;;;;;7389836;19;20031;-72
2023/09/26 09:49:43;;;;;;;9.23;7.78;;;19.10;1.00;;;;;;7386306;19;20690;-71
2023/09/26 09:52:13;;;;;;;7.97;7.18;;;19.10;1.00;;;;;;7389601;19;20038;-72
2023/09/26 09:54:46;;;;;;;8.90;7.03;;;19.00;1.00;;;;;;7393219;19;20538;-71
2023/09/26 09:57:18;;;;;;;8.90;7.20;;;19.00;1.00;;;;;;7393351;19;20347;-71
2023/09/26 09:59:52;;;;;;;9.30;7.18;;;19.00;1.00;;;;;;7395557;19;20086;-71
2023/09/26 10:02:23;;;;;;;;;;;19.20;1.00;;;;;;7394673;19;20047;-72
2023/09/26 10:04:55;;;;;;;10.18;6.88;;;19.40;1.00;;;;;;7394833;19;20374;-71
2023/09/26 10:07:27;;;;;;;7.63;6.80;;;19.60;1.00;;;;;;7394931;19;20021;-72
2023/09/26 10:09:58;;;;;;;7.78;6.72;;;19.70;1.00;;;;;;7395473;19;20010;-71
2023/09/26 10:12:28;;;;;;;8.45;6.95;;;19.30;1.00;;;;;;7392888;19;20017;-71
2023/09/26 10:15:11;;;;;;;7.72;6.43;;;19.50;1.00;;;;;;7392736;19;20010;-71
2023/09/26 10:17:42;;;;;;;8.32;5.97;;;19.70;1.00;;;;;;7394732;19;20040;-72
2023/09/26 10:20:14;;;;;;;8.35;5.88;;;19.90;1.00;;;;;;7394999;19;20470;-73
2023/09/26 10:23:12;;;;;;;8.68;6.25;;;20.00;1.00;;;;;;7395875;19;20014;-71
2023/09/26 10:25:43;;;;;;;6.85;6.03;;;20.20;1.00;;;;;;7392906;19;20086;-71
2023/09/26 10:28:13;;;;;;;7.43;5.65;;;20.20;1.00;;;;;;7394979;19;20427;-71
2023/09/26 10:30:57;;;;;;;8.15;5.53;;;20.10;1.00;;;;;;7392167;19;20018;-71
2023/09/26 10:33:31;;;;;;;9.07;5.32;;;20.10;1.00;;;;;;7393971;19;20025;-72
2023/09/26 10:36:09;;;;;;;9.55;4.72;;;20.20;1.00;;;;;;7393957;19;20078;-72
2023/09/26 10:38:39;;;;;;;5.30;4.40;;;20.50;1.00;;;;;;7393856;19;20019;-72
2023/09/26 10:41:09;;;;;;;5.35;3.78;;;20.30;1.00;;;;;;7394457;19;20014;-71
2023/09/26 10:43:39;;;;;;;5.70;4.00;;;20.70;1.00;;;;;;7392666;19;20368;-72
2023/09/26 10:46:20;;;;;;;5.03;3.55;;;20.60;1.00;;;;;;7393033;19;20014;-71
2023/09/26 10:48:50;;;;;;;4.53;4.07;;;20.70;1.00;;;;;;7394005;19;20014;-72
2023/09/26 10:51:21;;;;;;;4.45;3.85;;;20.60;1.00;;;;;;7396391;19;20011;-72
2023/09/26 10:53:51;;;;;;;4.00;3.20;;;20.80;1.00;;;;;;7395183;19;20038;-72
2023/09/26 10:56:21;;;;;;;4.57;3.58;;;21.00;1.00;;;;;;7391521;19;20037;-71
2023/09/26 10:58:54;;;;;;;4.55;3.67;;;21.00;1.00;;;;;;7394223;19;20035;-72
2023/09/26 11:01:45;;;;;;;6.68;4.00;;;20.90;1.00;;;;;;7392966;19;20077;-72
2023/09/26 11:04:15;;;;;;;6.00;3.15;;;20.90;1.00;;;;;;7391498;19;20006;-70
2023/09/26 11:06:46;;;;;;;4.28;3.30;;;21.00;1.00;;;;;;7392514;19;20029;-71
2023/09/26 11:09:17;;;;;;;5.10;3.20;;;21.10;1.00;;;;;;7393292;19;20017;-72
2023/09/26 11:11:47;;;;;;;4.40;2.83;;;21.30;1.00;;;;;;7393446;19;20127;-72
2023/09/26 11:14:17;;;;;;;2.88;2.60;;;21.40;1.00;;;;;;7393207;19;20014;-72
2023/09/26 11:16:51;;;;;;;4.28;2.75;;;21.20;1.00;;;;;;7391278;19;20081;-72
2023/09/26 11:19:25;;;;;;;3.28;2.95;;;21.40;1.00;;;;;;7391640;19;20015;-72
2023/09/26 11:21:55;;;;;;;4.68;3.50;;;21.50;1.00;;;;;;7393913;19;20003;-72
2023/09/26 11:24:27;;;;;;;4.15;3.10;;;21.20;1.00;;;;;;7393555;19;20014;-72
2023/09/26 11:26:59;;;;;;;5.82;2.72;;;21.40;1.00;;;;;;7393339;19;20014;-72
2023/09/26 11:29:31;;;;;;;4.15;2.50;;;21.50;1.00;;;;;;7391240;19;20344;-71
2023/09/26 11:32:06;;;;;;;4.43;2.72;;;21.60;1.00;;;;;;7394183;19;20074;-72
2023/09/26 11:34:37;;;;;;;3.67;2.38;;;21.80;1.00;;;;;;7391805;19;20039;-72
2023/09/26 11:37:08;;;;;;;6.22;4.13;;;21.80;1.00;;;;;;7392852;19;20466;-72
2023/09/26 11:39:39;;;;;;;5.38;2.70;;;21.70;1.00;;;;;;7391029;19;20022;-73
2023/09/26 11:42:11;;;;;;;3.72;2.55;;;21.50;1.00;;;;;;7392638;19;20020;-72
2023/09/26 11:44:41;;;;;;;3.33;2.60;;;21.70;1.00;;;;;;7391359;19;20015;-72
2023/09/26 11:47:14;;;;;;;6.05;2.22;;;21.90;1.00;;;;;;7393478;19;20090;-71
2023/09/26 11:49:44;;;;;;;5.03;2.30;;;22.00;1.00;;;;;;7392587;19;20078;-72
2023/09/26 11:52:14;;;;;;;3.28;2.33;;;22.00;1.00;;;;;;7392909;19;20463;-72
2023/09/26 11:54:44;;;;;;;6.55;2.28;;;22.10;1.00;;;;;;7393157;19;20010;-72
2023/09/26 11:57:14;;;;;;;3.80;2.80;;;22.20;1.00;;;;;;7393158;19;20477;-72
2023/09/26 11:59:45;;;;;;;5.57;2.65;;;22.10;1.00;;;;;;7391497;19;20027;-71
2023/09/26 12:02:17;;;;;;;3.03;1.95;;;22.00;1.00;;;;;;7392412;19;20074;-72
2023/09/26 12:04:47;;;;;;;2.92;2.28;;;22.10;1.00;;;;;;7392581;19;20474;-72
2023/09/26 12:07:18;;;;;;;2.83;2.15;;;22.10;1.00;;;;;;7392545;19;20484;-73
2023/09/26 12:09:48;;;;;;;2.28;1.77;;;22.20;1.00;;;;;;7387656;19;20014;-73
2023/09/26 12:12:18;;;;;;;3.42;2.10;;;22.20;1.00;;;;;;7392567;19;20025;-71
2023/09/26 12:14:48;;;;;;;3.53;1.83;;;22.10;1.00;;;;;;7389776;19;20039;-71
2023/09/26 12:17:21;;;;;;;3.90;1.98;;;22.40;1.00;;;;;;7392285;19;20038;-73
2023/09/26 12:19:51;;;;;;;2.05;1.52;;;22.30;1.00;;;;;;7410856;19;20010;-73
2023/09/26 12:22:21;;;;;;;6.53;1.80;;;22.40;1.00;;;;;;7397725;19;20086;-72
2023/09/26 12:24:51;;;;;;;2.53;1.50;;;22.30;1.00;;;;;;7392501;19;20035;-72
2023/09/26 12:27:21;;;;;;;2.60;1.52;;;22.50;1.00;;;;;;7391344;19;20011;-73
2023/09/26 12:29:51;;;;;;;3.10;1.92;;;22.50;1.00;;;;;;7392471;19;20018;-72
2023/09/26 12:32:23;;;;;;;1.80;1.60;;;22.60;1.00;;;;;;7392338;19;20376;-72
2023/09/26 12:34:53;;;;;;;2.20;1.70;;;22.60;1.00;;;;;;7392354;19;20656;-74
2023/09/26 12:37:24;;;;;;;4.63;1.70;;;22.60;1.00;;;;;;7391737;19;20006;-73
2023/09/26 12:39:55;;;;;;;3.55;1.70;;;22.70;1.00;;;;;;7391343;19;20017;-72
2023/09/26 12:42:25;;;;;;;1.90;1.35;;;22.90;1.00;;;;;;7390805;19;20014;-73
2023/09/26 12:44:55;;;;;;;4.03;2.00;;;22.70;1.00;;;;;;7391474;19;20388;-72
2023/09/26 12:47:28;;;;;;;3.40;1.88;;;22.70;1.00;;;;;;7389597;19;20007;-72
2023/09/26 12:50:00;;;;;;;3.23;1.80;;;22.60;1.00;;;;;;7390449;19;20011;-73
2023/09/26 12:52:32;;;;;;;4.72;2.17;;;22.90;1.00;;;;;;7390445;19;20014;-73
2023/09/26 12:55:02;;;;;;;3.55;2.08;;;22.90;1.00;;;;;;7389661;19;20011;-73
2023/09/26 12:57:33;;;;;;;2.88;1.80;;;23.00;1.00;;;;;;7390345;19;20470;-73
2023/09/26 13:00:07;;;;;;;1.77;1.35;;;22.90;1.00;;;;;;7391529;19;20015;-72
2023/09/26 13:02:40;;;;;;;2.83;1.80;;;22.90;1.00;;;;;;7390590;19;20034;-72
2023/09/26 13:05:12;;;;;;;3.42;1.70;;;22.90;1.00;;;;;;7390536;19;20323;-72
2023/09/26 13:07:42;;;;;;;2.33;1.60;;;23.10;1.00;;;;;;7391277;19;20583;-73